createdAt,value
2023-01-29T00:00:25.316Z,1006.98
2023-01-29T00:01:25.280Z,1006.94
2023-01-29T00:02:25.383Z,1006.95
2023-01-29T00:03:25.303Z,1006.94
2023-01-29T00:04:25.251Z,1006.90
2023-01-29T00:05:28.214Z,1006.91
2023-01-29T00:06:25.155Z,1006.89
2023-01-29T00:07:25.137Z,1006.84
2023-01-29T00:08:25.106Z,1006.84
2023-01-29T00:09:25.070Z,1006.86
2023-01-29T00:10:25.047Z,1006.94
2023-01-29T00:11:25.035Z,1006.97
2023-01-29T00:12:25.000Z,1007.00
2023-01-29T00:13:24.955Z,1007.02
2023-01-29T00:14:25.011Z,1007.03
2023-01-29T00:15:24.905Z,1007.02
2023-01-29T00:16:24.896Z,1006.98
2023-01-29T00:17:24.856Z,1006.96
2023-01-29T00:18:24.824Z,1006.99
2023-01-29T00:19:24.797Z,1007.02
2023-01-29T00:20:24.804Z,1007.02
2023-01-29T00:21:24.749Z,1007.05
2023-01-29T00:22:24.715Z,1007.06
2023-01-29T00:23:24.689Z,1007.03
2023-01-29T00:24:24.735Z,1007.06
2023-01-29T00:25:24.659Z,1007.04
2023-01-29T00:26:24.622Z,1007.07
2023-01-29T00:27:24.579Z,1007.01
2023-01-29T00:28:24.553Z,1006.98
2023-01-29T00:29:24.527Z,1006.96
2023-01-29T00:30:24.501Z,1006.93
2023-01-29T00:31:24.576Z,1006.98
2023-01-29T00:32:24.522Z,1006.95
2023-01-29T00:33:24.421Z,1006.96
2023-01-29T00:34:24.393Z,1006.97
2023-01-29T00:35:24.364Z,1007.00
2023-01-29T00:36:24.337Z,1007.03
2023-01-29T00:37:24.305Z,1006.95
2023-01-29T00:38:24.288Z,1007.00
2023-01-29T00:39:29.369Z,1006.97
2023-01-29T00:40:24.228Z,1006.98
2023-01-29T00:41:24.198Z,1007.00
2023-01-29T00:42:24.182Z,1007.01
2023-01-29T00:43:24.144Z,1007.04
2023-01-29T00:44:24.134Z,1007.04
2023-01-29T00:45:24.105Z,1007.09
2023-01-29T00:46:24.075Z,1007.10
2023-01-29T00:47:24.031Z,1007.10
2023-01-29T00:48:24.024Z,1007.12
2023-01-29T00:49:23.983Z,1007.15
2023-01-29T00:50:23.959Z,1007.16
2023-01-29T00:51:23.925Z,1007.17
2023-01-29T00:52:23.932Z,1007.16
2023-01-29T00:53:23.876Z,1007.12
2023-01-29T00:54:23.853Z,1007.06
2023-01-29T00:55:23.822Z,1007.06
2023-01-29T00:56:23.796Z,1007.13
2023-01-29T00:57:23.768Z,1007.10
2023-01-29T00:58:23.739Z,1007.16
2023-01-29T00:59:23.713Z,1007.18
2023-01-29T01:00:23.692Z,1007.19
2023-01-29T01:01:23.659Z,1007.14
2023-01-29T01:02:23.760Z,1007.15
2023-01-29T01:03:23.615Z,1007.13
2023-01-29T01:04:23.574Z,1007.09
2023-01-29T01:05:23.552Z,1007.06
2023-01-29T01:06:23.547Z,1007.07
2023-01-29T01:07:23.495Z,1007.09
2023-01-29T01:08:23.479Z,1007.10
2023-01-29T01:09:23.442Z,1007.06
2023-01-29T01:10:23.424Z,1007.11
2023-01-29T01:11:23.387Z,1007.05
2023-01-29T01:12:23.358Z,1007.04
2023-01-29T01:13:23.332Z,1007.01
2023-01-29T01:14:23.308Z,1006.99
2023-01-29T01:15:23.279Z,1007.04
2023-01-29T01:16:23.299Z,1007.03
2023-01-29T01:17:23.212Z,1007.00
2023-01-29T01:18:23.211Z,1006.96
2023-01-29T01:19:23.173Z,1006.97
2023-01-29T01:20:23.148Z,1006.96
2023-01-29T01:21:23.123Z,1006.96
2023-01-29T01:22:23.089Z,1006.92
2023-01-29T01:23:23.064Z,1006.90
2023-01-29T01:24:23.069Z,1006.93
2023-01-29T01:25:23.044Z,1006.90
2023-01-29T01:26:22.978Z,1006.91
2023-01-29T01:27:22.967Z,1006.95
2023-01-29T01:28:22.930Z,1006.90
2023-01-29T01:29:22.896Z,1006.93
2023-01-29T01:30:22.893Z,1006.95
2023-01-29T01:31:23.035Z,1006.91
2023-01-29T01:32:22.828Z,1006.92
2023-01-29T01:33:22.790Z,1006.89
2023-01-29T01:34:22.766Z,1006.90
2023-01-29T01:35:22.743Z,1006.91
2023-01-29T01:36:22.717Z,1006.92
2023-01-29T01:37:22.679Z,1006.93
2023-01-29T01:38:22.665Z,1006.88
2023-01-29T01:39:22.630Z,1006.89
2023-01-29T01:40:22.639Z,1006.90
2023-01-29T01:41:22.577Z,1006.87
2023-01-29T01:42:22.580Z,1006.90
2023-01-29T01:43:22.521Z,1006.87
2023-01-29T01:44:22.505Z,1006.86
2023-01-29T01:45:22.460Z,1006.90
2023-01-29T01:46:22.447Z,1006.89
2023-01-29T01:47:22.412Z,1006.88
2023-01-29T01:48:22.387Z,1006.89
2023-01-29T01:49:22.354Z,1006.90
2023-01-29T01:50:22.326Z,1006.83
2023-01-29T01:51:22.309Z,1006.83
2023-01-29T01:52:22.348Z,1006.79
2023-01-29T01:53:22.240Z,1006.77
2023-01-29T01:54:22.222Z,1006.75
2023-01-29T01:55:22.209Z,1006.72
2023-01-29T01:56:22.165Z,1006.77
2023-01-29T01:57:22.141Z,1006.73
2023-01-29T01:58:22.116Z,1006.75
2023-01-29T01:59:22.081Z,1006.72
2023-01-29T02:00:22.079Z,1006.71
2023-01-29T02:01:23.750Z,1006.73
2023-01-29T02:02:22.037Z,1006.68
2023-01-29T02:03:21.970Z,1006.68
2023-01-29T02:04:21.968Z,1006.65
2023-01-29T02:05:21.939Z,1006.64
2023-01-29T02:06:21.895Z,1006.62
2023-01-29T02:07:21.878Z,1006.61
2023-01-29T02:08:21.845Z,1006.59
2023-01-29T02:09:21.821Z,1006.59
2023-01-29T02:10:21.787Z,1006.56
2023-01-29T02:11:21.760Z,1006.54
2023-01-29T02:12:21.735Z,1006.50
2023-01-29T02:13:21.716Z,1006.53
2023-01-29T02:14:21.701Z,1006.54
2023-01-29T02:15:21.646Z,1006.51
2023-01-29T02:16:21.628Z,1006.49
2023-01-29T02:17:21.638Z,1006.49
2023-01-29T02:18:21.568Z,1006.49
2023-01-29T02:19:21.538Z,1006.48
2023-01-29T02:20:21.511Z,1006.51
2023-01-29T02:21:21.480Z,1006.46
2023-01-29T02:22:21.471Z,1006.42
2023-01-29T02:23:21.434Z,1006.41
2023-01-29T02:24:21.494Z,1006.36
2023-01-29T02:25:21.395Z,1006.37
2023-01-29T02:26:21.374Z,1006.35
2023-01-29T02:27:21.327Z,1006.35
2023-01-29T02:28:21.355Z,1006.36
2023-01-29T02:29:21.264Z,1006.29
2023-01-29T02:30:21.247Z,1006.32
2023-01-29T02:31:21.257Z,1006.34
2023-01-29T02:32:21.214Z,1006.31
2023-01-29T02:33:21.162Z,1006.31
2023-01-29T02:34:21.143Z,1006.31
2023-01-29T02:35:21.099Z,1006.31
2023-01-29T02:36:21.127Z,1006.34
2023-01-29T02:37:21.047Z,1006.32
2023-01-29T02:38:21.046Z,1006.31
2023-01-29T02:39:20.993Z,1006.30
2023-01-29T02:40:20.985Z,1006.34
2023-01-29T02:41:20.949Z,1006.33
2023-01-29T02:42:20.913Z,1006.33
2023-01-29T02:43:20.988Z,1006.30
2023-01-29T02:44:20.898Z,1006.35
2023-01-29T02:45:20.842Z,1006.35
2023-01-29T02:46:20.804Z,1006.41
2023-01-29T02:47:20.780Z,1006.41
2023-01-29T02:48:20.749Z,1006.48
2023-01-29T02:49:20.740Z,1006.44
2023-01-29T02:50:20.699Z,1006.44
2023-01-29T02:51:20.667Z,1006.39
2023-01-29T02:52:20.702Z,1006.38
2023-01-29T02:53:20.652Z,1006.41
2023-01-29T02:54:20.602Z,1006.38
2023-01-29T02:55:20.576Z,1006.41
2023-01-29T02:56:20.538Z,1006.40
2023-01-29T02:57:20.499Z,1006.46
2023-01-29T02:58:20.472Z,1006.40
2023-01-29T02:59:20.452Z,1006.48
2023-01-29T03:00:20.432Z,1006.46
2023-01-29T03:01:20.472Z,1006.48
2023-01-29T03:02:20.400Z,1006.50
2023-01-29T03:03:20.338Z,1006.53
2023-01-29T03:04:20.312Z,1006.53
2023-01-29T03:05:20.282Z,1006.48
2023-01-29T03:06:20.252Z,1006.50
2023-01-29T03:07:20.243Z,1006.53
2023-01-29T03:08:20.212Z,1006.53
2023-01-29T03:09:20.166Z,1006.54
2023-01-29T03:10:20.139Z,1006.62
2023-01-29T03:11:20.114Z,1006.62
2023-01-29T03:12:20.416Z,1006.66
2023-01-29T03:13:20.058Z,1006.72
2023-01-29T03:14:20.036Z,1006.70
2023-01-29T03:15:20.004Z,1006.71
2023-01-29T03:16:20.074Z,1006.73
2023-01-29T03:17:19.951Z,1006.80
2023-01-29T03:18:19.920Z,1006.80
2023-01-29T03:19:20.257Z,1006.79
2023-01-29T03:20:19.986Z,1006.80
2023-01-29T03:21:19.860Z,1006.87
2023-01-29T03:22:19.813Z,1006.81
2023-01-29T03:23:20.762Z,1006.79
2023-01-29T03:24:19.772Z,1006.75
2023-01-29T03:25:19.730Z,1006.76
2023-01-29T03:26:19.705Z,1006.76
2023-01-29T03:27:19.677Z,1006.77
2023-01-29T03:28:19.644Z,1006.77
2023-01-29T03:29:19.619Z,1006.78
2023-01-29T03:30:19.587Z,1006.82
2023-01-29T03:31:19.661Z,1006.81
2023-01-29T03:32:19.534Z,1006.79
2023-01-29T03:33:19.511Z,1006.77
2023-01-29T03:34:19.489Z,1006.77
2023-01-29T03:35:19.457Z,1006.76
2023-01-29T03:36:19.419Z,1006.75
2023-01-29T03:37:19.399Z,1006.75
2023-01-29T03:38:19.376Z,1006.72
2023-01-29T03:39:19.341Z,1006.68
2023-01-29T03:40:19.629Z,1006.68
2023-01-29T03:41:19.292Z,1006.67
2023-01-29T03:42:19.259Z,1006.71
2023-01-29T03:43:19.233Z,1006.73
2023-01-29T03:44:19.199Z,1006.71
2023-01-29T03:45:19.190Z,1006.76
2023-01-29T03:46:19.192Z,1006.79
2023-01-29T03:47:19.130Z,1006.78
2023-01-29T03:48:19.092Z,1006.80
2023-01-29T03:49:19.080Z,1006.83
2023-01-29T03:50:19.227Z,1006.83
2023-01-29T03:51:19.011Z,1006.84
2023-01-29T03:52:18.997Z,1006.89
2023-01-29T03:53:18.955Z,1006.89
2023-01-29T03:54:18.924Z,1006.98
2023-01-29T03:55:18.932Z,1006.95
2023-01-29T03:56:18.878Z,1006.94
2023-01-29T03:57:18.848Z,1006.94
2023-01-29T03:58:18.833Z,1006.95
2023-01-29T03:59:18.793Z,1006.96
2023-01-29T04:00:19.081Z,1006.93
2023-01-29T04:01:18.781Z,1006.92
2023-01-29T04:02:18.710Z,1006.92
2023-01-29T04:03:18.685Z,1006.88
2023-01-29T04:04:18.684Z,1006.86
2023-01-29T04:05:18.626Z,1006.84
2023-01-29T04:06:18.596Z,1006.83
2023-01-29T04:07:18.582Z,1006.76
2023-01-29T04:08:18.546Z,1006.76
2023-01-29T04:09:18.526Z,1006.70
2023-01-29T04:10:18.728Z,1006.66
2023-01-29T04:11:18.481Z,1006.67
2023-01-29T04:12:18.437Z,1006.62
2023-01-29T04:13:18.411Z,1006.62
2023-01-29T04:14:18.392Z,1006.57
2023-01-29T04:15:18.363Z,1006.50
2023-01-29T04:16:18.356Z,1006.52
2023-01-29T04:17:18.304Z,1006.51
2023-01-29T04:18:18.273Z,1006.54
2023-01-29T04:19:18.247Z,1006.58
2023-01-29T04:20:18.523Z,1006.60
2023-01-29T04:21:18.206Z,1006.66
2023-01-29T04:22:18.159Z,1006.68
2023-01-29T04:23:18.137Z,1006.72
2023-01-29T04:24:18.237Z,1006.74
2023-01-29T04:25:18.082Z,1006.74
2023-01-29T04:26:18.050Z,1006.73
2023-01-29T04:27:18.030Z,1006.72
2023-01-29T04:28:17.993Z,1006.67
2023-01-29T04:29:17.968Z,1006.70
2023-01-29T04:30:18.194Z,1006.68
2023-01-29T04:31:18.019Z,1006.63
2023-01-29T04:32:17.890Z,1006.60
2023-01-29T04:33:17.859Z,1006.63
2023-01-29T04:34:17.845Z,1006.62
2023-01-29T04:35:17.805Z,1006.60
2023-01-29T04:36:17.788Z,1006.61
2023-01-29T04:37:17.755Z,1006.59
2023-01-29T04:38:17.752Z,1006.52
2023-01-29T04:39:17.696Z,1006.54
2023-01-29T04:40:18.027Z,1006.49
2023-01-29T04:41:17.646Z,1006.49
2023-01-29T04:42:17.624Z,1006.47
2023-01-29T04:43:17.600Z,1006.42
2023-01-29T04:44:17.559Z,1006.40
2023-01-29T04:45:17.529Z,1006.28
2023-01-29T04:46:17.536Z,1006.23
2023-01-29T04:47:17.518Z,1006.18
2023-01-29T04:48:17.472Z,1006.10
2023-01-29T04:49:17.459Z,1006.12
2023-01-29T04:50:17.851Z,1006.17
2023-01-29T04:51:17.367Z,1006.22
2023-01-29T04:52:17.363Z,1006.28
2023-01-29T04:53:17.324Z,1006.38
2023-01-29T04:54:17.285Z,1006.36
2023-01-29T04:55:17.263Z,1006.33
2023-01-29T04:56:17.249Z,1006.22
2023-01-29T04:57:17.205Z,1006.17
2023-01-29T04:58:17.194Z,1006.11
2023-01-29T04:59:17.150Z,1006.14
2023-01-29T05:00:17.457Z,1006.16
2023-01-29T05:01:17.094Z,1006.21
2023-01-29T05:02:17.070Z,1006.31
2023-01-29T05:03:17.040Z,1006.34
2023-01-29T05:04:17.007Z,1006.34
2023-01-29T05:05:16.984Z,1006.35
2023-01-29T05:06:16.947Z,1006.32
2023-01-29T05:07:16.927Z,1006.33
2023-01-29T05:08:16.935Z,1006.31
2023-01-29T05:09:16.873Z,1006.37
2023-01-29T05:10:17.116Z,1006.37
2023-01-29T05:11:16.817Z,1006.37
2023-01-29T05:12:16.792Z,1006.40
2023-01-29T05:13:16.757Z,1006.41
2023-01-29T05:14:16.733Z,1006.42
2023-01-29T05:15:16.725Z,1006.46
2023-01-29T05:16:16.732Z,1006.51
2023-01-29T05:17:16.652Z,1006.52
2023-01-29T05:18:16.635Z,1006.53
2023-01-29T05:19:16.594Z,1006.57
2023-01-29T05:20:16.923Z,1006.64
2023-01-29T05:21:16.543Z,1006.66
2023-01-29T05:22:16.510Z,1006.70
2023-01-29T05:23:16.485Z,1006.70
2023-01-29T05:24:16.532Z,1006.71
2023-01-29T05:25:16.431Z,1006.72
2023-01-29T05:26:16.424Z,1006.73
2023-01-29T05:27:16.390Z,1006.77
2023-01-29T05:28:16.375Z,1006.74
2023-01-29T05:29:16.320Z,1006.77
2023-01-29T05:30:16.704Z,1006.73
2023-01-29T05:31:16.389Z,1006.71
2023-01-29T05:32:16.276Z,1006.71
2023-01-29T05:33:16.209Z,1006.68
2023-01-29T05:34:16.176Z,1006.63
2023-01-29T05:35:16.157Z,1006.61
2023-01-29T05:36:16.138Z,1006.61
2023-01-29T05:37:16.113Z,1006.55
2023-01-29T05:38:16.071Z,1006.52
2023-01-29T05:39:16.047Z,1006.45
2023-01-29T05:40:16.328Z,1006.40
2023-01-29T05:41:15.990Z,1006.39
2023-01-29T05:42:15.982Z,1006.33
2023-01-29T05:43:15.950Z,1006.34
2023-01-29T05:44:15.947Z,1006.33
2023-01-29T05:45:15.884Z,1006.37
2023-01-29T05:46:15.897Z,1006.36
2023-01-29T05:47:15.828Z,1006.38
2023-01-29T05:48:15.803Z,1006.40
2023-01-29T05:49:15.777Z,1006.42
2023-01-29T05:50:16.155Z,1006.41
2023-01-29T05:51:15.723Z,1006.43
2023-01-29T05:52:15.703Z,1006.43
2023-01-29T05:53:15.662Z,1006.41
2023-01-29T05:54:15.627Z,1006.37
2023-01-29T05:55:15.628Z,1006.42
2023-01-29T05:56:15.574Z,1006.42
2023-01-29T05:57:15.557Z,1006.51
2023-01-29T05:58:15.531Z,1006.52
2023-01-29T05:59:15.523Z,1006.58
2023-01-29T06:00:15.823Z,1006.62
2023-01-29T06:01:15.456Z,1006.65
2023-01-29T06:02:15.429Z,1006.61
2023-01-29T06:03:15.453Z,1006.62
2023-01-29T06:04:15.380Z,1006.60
2023-01-29T06:05:15.333Z,1006.58
2023-01-29T06:06:15.305Z,1006.59
2023-01-29T06:07:15.290Z,1006.60
2023-01-29T06:08:15.257Z,1006.60
2023-01-29T06:09:15.227Z,1006.57
2023-01-29T06:10:15.459Z,1006.55
2023-01-29T06:11:15.193Z,1006.55
2023-01-29T06:12:15.152Z,1006.60
2023-01-29T06:13:15.124Z,1006.54
2023-01-29T06:14:15.091Z,1006.56
2023-01-29T06:15:15.063Z,1006.56
2023-01-29T06:16:15.192Z,1006.56
2023-01-29T06:17:15.003Z,1006.53
2023-01-29T06:18:14.972Z,1006.51
2023-01-29T06:19:14.959Z,1006.46
2023-01-29T06:20:15.468Z,1006.51
2023-01-29T06:21:14.895Z,1006.53
2023-01-29T06:22:14.873Z,1006.56
2023-01-29T06:23:14.856Z,1006.56
2023-01-29T06:24:14.874Z,1006.55
2023-01-29T06:25:14.782Z,1006.50
2023-01-29T06:26:14.757Z,1006.45
2023-01-29T06:27:14.734Z,1006.42
2023-01-29T06:28:14.725Z,1006.38
2023-01-29T06:29:14.679Z,1006.41
2023-01-29T06:30:14.823Z,1006.36
2023-01-29T06:31:39.538Z,1006.36
2023-01-29T06:32:14.679Z,1006.37
2023-01-29T06:33:14.579Z,1006.35
2023-01-29T06:34:14.545Z,1006.29
2023-01-29T06:35:14.515Z,1006.34
2023-01-29T06:36:14.501Z,1006.31
2023-01-29T06:37:14.456Z,1006.33
2023-01-29T06:38:14.422Z,1006.35
2023-01-29T06:39:14.406Z,1006.42
2023-01-29T06:40:14.516Z,1006.43
2023-01-29T06:41:14.357Z,1006.45
2023-01-29T06:42:14.329Z,1006.48
2023-01-29T06:43:14.293Z,1006.45
2023-01-29T06:44:14.264Z,1006.48
2023-01-29T06:45:14.238Z,1006.48
2023-01-29T06:46:14.240Z,1006.47
2023-01-29T06:47:14.189Z,1006.46
2023-01-29T06:48:14.148Z,1006.46
2023-01-29T06:49:14.129Z,1006.45
2023-01-29T06:50:14.375Z,1006.43
2023-01-29T06:51:14.073Z,1006.41
2023-01-29T06:52:14.047Z,1006.41
2023-01-29T06:53:14.029Z,1006.44
2023-01-29T06:54:13.996Z,1006.42
2023-01-29T06:55:13.971Z,1006.43
2023-01-29T06:56:13.962Z,1006.36
2023-01-29T06:57:13.913Z,1006.36
2023-01-29T06:58:13.879Z,1006.37
2023-01-29T06:59:13.851Z,1006.39
2023-01-29T07:00:13.833Z,1006.41
2023-01-29T07:01:25.435Z,1006.43
2023-01-29T07:02:13.794Z,1006.41
2023-01-29T07:03:13.752Z,1006.43
2023-01-29T07:04:13.724Z,1006.44
2023-01-29T07:05:13.695Z,1006.44
2023-01-29T07:06:13.669Z,1006.52
2023-01-29T07:07:13.646Z,1006.53
2023-01-29T07:08:13.607Z,1006.50
2023-01-29T07:09:13.593Z,1006.53
2023-01-29T07:10:13.619Z,1006.53
2023-01-29T07:11:13.529Z,1006.55
2023-01-29T07:12:13.494Z,1006.55
2023-01-29T07:13:13.474Z,1006.60
2023-01-29T07:14:13.441Z,1006.53
2023-01-29T07:15:13.422Z,1006.50
2023-01-29T07:16:13.433Z,1006.50
2023-01-29T07:17:13.372Z,1006.57
2023-01-29T07:18:13.345Z,1006.55
2023-01-29T07:19:13.300Z,1006.58
2023-01-29T07:20:13.301Z,1006.56
2023-01-29T07:21:13.270Z,1006.61
2023-01-29T07:22:13.244Z,1006.62
2023-01-29T07:23:13.199Z,1006.64
2023-01-29T07:24:13.206Z,1006.69
2023-01-29T07:25:13.145Z,1006.71
2023-01-29T07:26:13.133Z,1006.74
2023-01-29T07:27:13.101Z,1006.72
2023-01-29T07:28:13.108Z,1006.77
2023-01-29T07:29:13.046Z,1006.73
2023-01-29T07:30:13.004Z,1006.75
2023-01-29T07:31:13.118Z,1006.77
2023-01-29T07:32:13.017Z,1006.82
2023-01-29T07:33:12.932Z,1006.82
2023-01-29T07:34:12.901Z,1006.83
2023-01-29T07:35:12.893Z,1006.82
2023-01-29T07:36:12.843Z,1006.81
2023-01-29T07:37:12.815Z,1006.76
2023-01-29T07:38:12.799Z,1006.78
2023-01-29T07:39:12.773Z,1006.76
2023-01-29T07:40:12.748Z,1006.77
2023-01-29T07:41:12.711Z,1006.83
2023-01-29T07:42:12.689Z,1006.86
2023-01-29T07:43:12.658Z,1006.87
2023-01-29T07:44:12.659Z,1006.88
2023-01-29T07:45:12.597Z,1006.86
2023-01-29T07:46:12.746Z,1006.89
2023-01-29T07:47:12.583Z,1006.89
2023-01-29T07:48:12.525Z,1006.84
2023-01-29T07:49:12.484Z,1006.85
2023-01-29T07:50:12.479Z,1006.85
2023-01-29T07:51:12.438Z,1006.79
2023-01-29T07:52:12.415Z,1006.81
2023-01-29T07:53:12.385Z,1006.87
2023-01-29T07:54:12.360Z,1006.86
2023-01-29T07:55:12.318Z,1006.84
2023-01-29T07:56:12.301Z,1006.80
2023-01-29T07:57:12.298Z,1006.77
2023-01-29T07:58:12.250Z,1006.74
2023-01-29T07:59:12.215Z,1006.73
2023-01-29T08:00:12.197Z,1006.73
2023-01-29T08:01:12.206Z,1006.69
2023-01-29T08:02:12.188Z,1006.68
2023-01-29T08:03:12.114Z,1006.67
2023-01-29T08:04:12.083Z,1006.70
2023-01-29T08:05:12.060Z,1006.72
2023-01-29T08:06:12.050Z,1006.70
2023-01-29T08:07:12.002Z,1006.72
2023-01-29T08:08:11.988Z,1006.75
2023-01-29T08:09:11.941Z,1006.78
2023-01-29T08:10:11.934Z,1006.81
2023-01-29T08:11:11.892Z,1006.82
2023-01-29T08:12:11.864Z,1006.86
2023-01-29T08:13:11.859Z,1006.83
2023-01-29T08:14:11.812Z,1006.86
2023-01-29T08:15:11.787Z,1006.82
2023-01-29T08:16:11.816Z,1006.82
2023-01-29T08:17:11.735Z,1006.85
2023-01-29T08:18:11.722Z,1006.85
2023-01-29T08:19:11.682Z,1006.87
2023-01-29T08:20:11.649Z,1006.86
2023-01-29T08:21:13.076Z,1006.87
2023-01-29T08:22:11.607Z,1006.87
2023-01-29T08:23:11.575Z,1006.88
2023-01-29T08:24:11.548Z,1006.88
2023-01-29T08:25:11.541Z,1006.87
2023-01-29T08:26:11.497Z,1006.90
2023-01-29T08:27:11.474Z,1006.90
2023-01-29T08:28:11.436Z,1006.92
2023-01-29T08:29:11.412Z,1006.95
2023-01-29T08:30:11.390Z,1006.96
2023-01-29T08:31:11.373Z,1007.00
2023-01-29T08:32:11.328Z,1007.07
2023-01-29T08:33:11.300Z,1007.11
2023-01-29T08:34:11.273Z,1007.13
2023-01-29T08:35:11.277Z,1007.13
2023-01-29T08:36:11.245Z,1007.13
2023-01-29T08:37:11.189Z,1007.15
2023-01-29T08:38:11.167Z,1007.14
2023-01-29T08:39:11.144Z,1007.16
2023-01-29T08:40:11.115Z,1007.11
2023-01-29T08:41:11.092Z,1007.09
2023-01-29T08:42:11.057Z,1007.03
2023-01-29T08:43:11.036Z,1007.00
2023-01-29T08:44:11.007Z,1006.98
2023-01-29T08:45:11.041Z,1006.95
2023-01-29T08:46:11.006Z,1006.89
2023-01-29T08:47:10.918Z,1006.83
2023-01-29T08:48:10.903Z,1006.77
2023-01-29T08:49:10.863Z,1006.74
2023-01-29T08:50:10.845Z,1006.68
2023-01-29T08:51:10.808Z,1006.62
2023-01-29T08:52:10.863Z,1006.64
2023-01-29T08:53:10.785Z,1006.56
2023-01-29T08:54:10.740Z,1006.55
2023-01-29T08:55:10.698Z,1006.57
2023-01-29T08:56:10.734Z,1006.57
2023-01-29T08:57:10.662Z,1006.61
2023-01-29T08:58:10.629Z,1006.64
2023-01-29T08:59:10.603Z,1006.70
2023-01-29T09:00:10.598Z,1006.75
2023-01-29T09:01:10.603Z,1006.80
2023-01-29T09:02:10.563Z,1006.76
2023-01-29T09:03:10.538Z,1006.74
2023-01-29T09:04:10.471Z,1006.77
2023-01-29T09:05:10.452Z,1006.77
2023-01-29T09:06:10.549Z,1006.73
2023-01-29T09:07:10.397Z,1006.72
2023-01-29T09:08:10.378Z,1006.73
2023-01-29T09:09:10.351Z,1006.72
2023-01-29T09:10:10.346Z,1006.74
2023-01-29T09:11:10.289Z,1006.79
2023-01-29T09:12:10.305Z,1006.78
2023-01-29T09:13:10.240Z,1006.81
2023-01-29T09:14:10.215Z,1006.76
2023-01-29T09:15:10.187Z,1006.77
2023-01-29T09:16:10.163Z,1006.79
2023-01-29T09:17:10.128Z,1006.82
2023-01-29T09:18:10.110Z,1006.85
2023-01-29T09:19:10.091Z,1006.92
2023-01-29T09:20:10.051Z,1006.91
2023-01-29T09:21:10.028Z,1006.97
2023-01-29T09:22:11.833Z,1007.02
2023-01-29T09:23:10.028Z,1006.95
2023-01-29T09:24:09.951Z,1007.02
2023-01-29T09:26:09.963Z,1007.04
2023-01-29T09:27:09.869Z,1007.11
2023-01-29T09:28:09.850Z,1007.15
2023-01-29T09:29:09.811Z,1007.23
2023-01-29T09:30:09.800Z,1007.23
2023-01-29T09:31:09.847Z,1007.21
2023-01-29T09:32:09.754Z,1007.22
2023-01-29T09:33:09.755Z,1007.24
2023-01-29T09:34:09.694Z,1007.26
2023-01-29T09:35:09.658Z,1007.26
2023-01-29T09:36:09.640Z,1007.27
2023-01-29T09:37:09.610Z,1007.30
2023-01-29T09:38:09.587Z,1007.33
2023-01-29T09:39:09.555Z,1007.36
2023-01-29T09:40:09.536Z,1007.35
2023-01-29T09:41:09.527Z,1007.37
2023-01-29T09:42:09.479Z,1007.40
2023-01-29T09:43:09.451Z,1007.42
2023-01-29T09:44:09.426Z,1007.46
2023-01-29T09:45:09.430Z,1007.50
2023-01-29T09:46:09.433Z,1007.51
2023-01-29T09:47:09.341Z,1007.52
2023-01-29T09:48:09.332Z,1007.54
2023-01-29T09:49:09.294Z,1007.52
2023-01-29T09:50:09.299Z,1007.53
2023-01-29T09:51:09.255Z,1007.56
2023-01-29T09:52:09.212Z,1007.59
2023-01-29T09:53:09.176Z,1007.61
2023-01-29T09:54:09.177Z,1007.60
2023-01-29T09:55:09.132Z,1007.59
2023-01-29T09:56:09.110Z,1007.54
2023-01-29T09:57:09.094Z,1007.52
2023-01-29T09:58:09.059Z,1007.52
2023-01-29T09:59:09.026Z,1007.50
2023-01-29T10:00:09.045Z,1007.46
2023-01-29T10:01:09.087Z,1007.49
2023-01-29T10:02:09.127Z,1007.48
2023-01-29T10:03:09.732Z,1007.47
2023-01-29T10:04:08.905Z,1007.48
2023-01-29T10:05:08.923Z,1007.50
2023-01-29T10:06:08.844Z,1007.45
2023-01-29T10:07:08.809Z,1007.37
2023-01-29T10:08:08.794Z,1007.35
2023-01-29T10:09:08.776Z,1007.29
2023-01-29T10:10:08.742Z,1007.32
2023-01-29T10:11:08.710Z,1007.33
2023-01-29T10:12:08.686Z,1007.32
2023-01-29T10:13:08.675Z,1007.33
2023-01-29T10:14:08.641Z,1007.34
2023-01-29T10:15:08.610Z,1007.29
2023-01-29T10:16:08.600Z,1007.26
2023-01-29T10:17:08.599Z,1007.23
2023-01-29T10:18:08.541Z,1007.19
2023-01-29T10:19:08.501Z,1007.13
2023-01-29T10:20:08.519Z,1007.08
2023-01-29T10:21:08.444Z,1007.09
2023-01-29T10:22:08.422Z,1007.06
2023-01-29T10:23:08.414Z,1007.13
2023-01-29T10:24:08.389Z,1007.13
2023-01-29T10:25:08.347Z,1007.08
2023-01-29T10:26:08.337Z,1007.09
2023-01-29T10:27:08.291Z,1007.05
2023-01-29T10:28:08.266Z,1007.07
2023-01-29T10:29:08.266Z,1007.03
2023-01-29T10:30:08.226Z,1007.01
2023-01-29T10:31:08.305Z,1006.97
2023-01-29T10:32:08.288Z,1006.95
2023-01-29T10:33:08.124Z,1006.86
2023-01-29T10:34:08.113Z,1006.84
2023-01-29T10:35:08.081Z,1006.84
2023-01-29T10:36:08.080Z,1006.83
2023-01-29T10:37:08.020Z,1006.83
2023-01-29T10:38:08.011Z,1006.78
2023-01-29T10:39:07.968Z,1006.80
2023-01-29T10:40:07.952Z,1006.78
2023-01-29T10:41:07.925Z,1006.82
2023-01-29T10:42:07.909Z,1006.80
2023-01-29T10:43:07.871Z,1006.82
2023-01-29T10:44:07.845Z,1006.78
2023-01-29T10:45:07.823Z,1006.76
2023-01-29T10:46:07.821Z,1006.74
2023-01-29T10:47:07.844Z,1006.71
2023-01-29T10:48:07.753Z,1006.67
2023-01-29T10:49:07.743Z,1006.65
2023-01-29T10:50:07.707Z,1006.65
2023-01-29T10:51:07.663Z,1006.66
2023-01-29T10:52:07.646Z,1006.58
2023-01-29T10:53:07.628Z,1006.56
2023-01-29T10:54:07.628Z,1006.60
2023-01-29T10:55:07.573Z,1006.60
2023-01-29T10:56:21.005Z,1006.60
2023-01-29T10:57:07.525Z,1006.61
2023-01-29T10:58:07.500Z,1006.60
2023-01-29T10:59:07.453Z,1006.61
2023-01-29T11:00:07.494Z,1006.61
2023-01-29T11:01:07.423Z,1006.59
2023-01-29T11:02:07.397Z,1006.52
2023-01-29T11:03:12.477Z,1006.51
2023-01-29T11:04:07.346Z,1006.47
2023-01-29T11:05:08.781Z,1006.49
2023-01-29T11:06:07.314Z,1006.51
2023-01-29T11:07:07.260Z,1006.45
2023-01-29T11:08:07.248Z,1006.47
2023-01-29T11:09:07.218Z,1006.46
2023-01-29T11:10:07.182Z,1006.44
2023-01-29T11:11:07.166Z,1006.40
2023-01-29T11:12:07.172Z,1006.40
2023-01-29T11:13:07.111Z,1006.38
2023-01-29T11:14:07.172Z,1006.35
2023-01-29T11:15:07.051Z,1006.37
2023-01-29T11:16:07.060Z,1006.33
2023-01-29T11:17:07.064Z,1006.32
2023-01-29T11:18:06.999Z,1006.31
2023-01-29T11:19:06.964Z,1006.25
2023-01-29T11:20:06.947Z,1006.25
2023-01-29T11:21:06.946Z,1006.23
2023-01-29T11:22:06.972Z,1006.23
2023-01-29T11:23:07.749Z,1006.26
2023-01-29T11:24:06.842Z,1006.24
2023-01-29T11:25:06.805Z,1006.16
2023-01-29T11:26:06.788Z,1006.15
2023-01-29T11:27:06.819Z,1006.14
2023-01-29T11:28:06.736Z,1006.10
2023-01-29T11:29:06.706Z,1006.08
2023-01-29T11:30:06.691Z,1006.12
2023-01-29T11:31:06.753Z,1006.10
2023-01-29T11:32:06.696Z,1006.07
2023-01-29T11:33:06.616Z,1006.00
2023-01-29T11:34:06.585Z,1006.02
2023-01-29T11:35:06.564Z,1005.97
2023-01-29T11:36:06.584Z,1005.93
2023-01-29T11:37:06.505Z,1005.92
2023-01-29T11:38:06.504Z,1005.93
2023-01-29T11:39:06.463Z,1005.92
2023-01-29T11:40:06.439Z,1005.90
2023-01-29T11:41:06.409Z,1005.86
2023-01-29T11:42:06.383Z,1005.82
2023-01-29T11:43:06.391Z,1005.82
2023-01-29T11:44:06.367Z,1005.80
2023-01-29T11:45:06.305Z,1005.71
2023-01-29T11:46:06.457Z,1005.68
2023-01-29T11:47:06.273Z,1005.68
2023-01-29T11:48:06.252Z,1005.68
2023-01-29T11:49:20.397Z,1005.68
2023-01-29T11:50:06.180Z,1005.72
2023-01-29T11:51:06.601Z,1005.73
2023-01-29T11:52:06.181Z,1005.76
2023-01-29T11:53:06.158Z,1005.74
2023-01-29T11:54:06.091Z,1005.71
2023-01-29T11:55:06.055Z,1005.66
2023-01-29T11:56:06.039Z,1005.61
2023-01-29T11:57:06.020Z,1005.58
2023-01-29T11:58:05.988Z,1005.60
2023-01-29T11:59:05.962Z,1005.57
2023-01-29T12:00:05.943Z,1005.54
2023-01-29T12:01:05.917Z,1005.54
2023-01-29T12:02:05.887Z,1005.51
2023-01-29T12:03:05.897Z,1005.54
2023-01-29T12:04:05.898Z,1005.54
2023-01-29T12:05:05.823Z,1005.50
2023-01-29T12:06:05.871Z,1005.49